Time;durP1;ratioP1;P1;durP2;ratioP2;P2;SDS_P1;SDS_P2;PMS_P1;PMS_P2;Temp;Humidity;BMP_temperature;BMP_pressure;BME280_temperature;BME280_humidity;BME280_pressure;Samples;Min_cycle;Max_cycle;Signal;HPM_P1;HPM_P2
2022/08/08 00:02:18;;;;;;;3.15;1.83;;;;;;;16.35;48.78;101706.16;7399630;19;20027;-69
2022/08/08 00:04:57;;;;;;;2.38;1.70;;;;;;;16.31;49.18;101699.22;7398241;19;20018;-69
2022/08/08 00:07:38;;;;;;;3.30;1.58;;;;;;;16.25;49.35;101705.56;7397122;19;20023;-69
2022/08/08 00:10:13;;;;;;;4.22;2.25;;;;;;;16.21;49.55;101703.94;7397628;19;20019;-69
2022/08/08 00:12:53;;;;;;;3.20;1.85;;;;;;;16.18;49.52;101704.03;7400057;19;20027;-69
2022/08/08 00:15:26;;;;;;;3.42;1.90;;;;;;;16.14;50.13;101703.25;7397186;19;20035;-69
2022/08/08 00:17:58;;;;;;;4.22;1.92;;;;;;;16.09;50.02;101698.09;7400038;19;20015;-69
2022/08/08 00:20:40;;;;;;;3.80;1.70;;;;;;;16.07;50.56;101709.63;7399108;19;20485;-69
2022/08/08 00:23:13;;;;;;;3.83;1.90;;;;;;;16.03;50.66;101705.34;7397384;19;20427;-69
2022/08/08 00:25:51;;;;;;;2.42;1.67;;;;;;;15.99;50.66;101699.28;7399361;19;20043;-69
2022/08/08 00:28:26;;;;;;;3.75;1.88;;;;;;;15.94;50.95;101706.47;7395455;19;20097;-69
2022/08/08 00:30:59;;;;;;;2.55;1.85;;;;;;;15.91;51.21;101696.84;7396920;19;20027;-69
2022/08/08 00:33:33;;;;;;;2.80;2.30;;;;;;;15.87;51.23;101702.28;7399097;19;20026;-69
2022/08/08 00:36:09;;;;;;;3.05;1.60;;;;;;;15.86;51.46;101701.41;7399306;19;20014;-69
2022/08/08 00:38:47;;;;;;;2.63;1.90;;;;;;;15.82;51.57;101698.88;7398949;19;20039;-69
2022/08/08 00:41:46;;;;;;;2.88;1.83;;;;;;;15.76;51.61;101700.78;7399174;19;20036;-69
2022/08/08 00:44:44;;;;;;;3.25;1.92;;;;;;;15.70;51.50;101705.38;7397814;19;20018;-69
2022/08/08 00:47:57;;;;;;;1.90;1.38;;;;;;;15.66;51.77;101706.34;7398725;19;20386;-69
2022/08/08 00:51:03;;;;;;;3.50;1.83;;;;;;;15.59;51.66;101703.00;7395537;19;20039;-68
2022/08/08 00:54:13;;;;;;;3.08;1.48;;;;;;;15.53;51.72;101705.81;7397923;19;20081;-67
2022/08/08 00:57:17;;;;;;;3.72;2.20;;;;;;;15.44;51.76;101702.53;7396421;19;20027;-68
2022/08/08 01:00:11;;;;;;;5.88;2.25;;;;;;;15.38;51.91;101699.16;7398251;19;20023;-67
2022/08/08 01:03:09;;;;;;;6.70;1.88;;;;;;;15.32;52.03;101709.00;7396581;19;20057;-67
2022/08/08 01:06:13;;;;;;;5.18;1.98;;;;;;;15.26;52.11;101698.56;7397939;19;20019;-67
2022/08/08 01:09:13;;;;;;;4.45;1.67;;;;;;;15.21;52.32;101704.91;7396398;19;20074;-67
2022/08/08 01:12:23;;;;;;;2.30;1.75;;;;;;;15.15;52.27;101708.56;7397640;19;20011;-68
2022/08/08 01:15:32;;;;;;;4.00;1.52;;;;;;;15.08;52.67;101705.22;7395592;19;20371;-67
2022/08/08 01:18:25;;;;;;;3.75;2.13;;;;;;;15.02;52.69;101702.72;7397921;19;20019;-67
2022/08/08 01:21:12;;;;;;;4.22;2.13;;;;;;;14.98;52.87;101704.56;7397108;19;20108;-67
2022/08/08 01:24:17;;;;;;;2.47;1.58;;;;;;;14.93;52.99;101701.19;7397317;19;20022;-72
2022/08/08 01:27:05;;;;;;;2.17;1.83;;;;;;;14.88;53.01;101704.84;7396893;19;20020;-69
2022/08/08 01:30:01;;;;;;;3.13;1.88;;;;;;;14.83;53.38;101715.53;7395963;19;20015;-68
2022/08/08 01:33:08;;;;;;;3.25;1.80;;;;;;;14.77;53.50;101705.09;7397105;19;20375;-67
2022/08/08 01:36:17;;;;;;;4.13;1.77;;;;;;;14.74;53.67;101706.03;7394671;19;20019;-67
2022/08/08 01:39:20;;;;;;;1.85;1.63;;;;;;;14.67;54.00;101696.53;7394351;19;20019;-67
2022/08/08 01:41:59;;;;;;;2.88;1.90;;;;;;;14.64;53.79;101699.22;7394333;19;20540;-67
2022/08/08 01:44:38;;;;;;;5.00;1.83;;;;;;;14.59;53.95;101695.81;7395199;19;20038;-67
2022/08/08 01:47:16;;;;;;;2.63;2.00;;;;;;;14.56;53.92;101701.16;7394422;19;20014;-67
2022/08/08 01:49:53;;;;;;;3.17;2.10;;;;;;;14.52;54.20;101697.75;7394960;19;20014;-73
2022/08/08 01:52:41;;;;;;;3.97;1.98;;;;;;;14.48;54.38;101693.41;7396230;19;20022;-68
2022/08/08 01:55:16;;;;;;;2.78;1.98;;;;;;;14.40;54.47;101688.31;7394426;19;20039;-68
2022/08/08 01:57:55;;;;;;;4.47;2.30;;;;;;;14.40;54.74;101695.38;7394717;19;20035;-68
2022/08/08 02:00:29;;;;;;;3.25;2.42;;;;;;;14.34;54.88;101696.34;7396482;19;20045;-68
2022/08/08 02:03:14;;;;;;;;;;;;;;;14.30;54.78;101695.56;7395244;19;20418;-68
2022/08/08 02:05:53;;;;;;;2.40;2.20;;;;;;;14.23;54.92;101693.97;7395965;19;20334;-69
2022/08/08 02:08:34;;;;;;;2.75;1.90;;;;;;;14.20;55.07;101694.03;7395626;19;20027;-69
2022/08/08 02:11:11;;;;;;;2.60;1.98;;;;;;;14.16;55.33;101687.09;7395618;19;20019;-69
2022/08/08 02:13:47;;;;;;;3.15;2.40;;;;;;;14.14;55.47;101694.16;7395353;19;20014;-69
2022/08/08 02:16:26;;;;;;;3.20;1.95;;;;;;;14.13;55.70;101695.94;7394540;19;20091;-69
2022/08/08 02:19:04;;;;;;;4.90;2.00;;;;;;;14.14;55.52;101687.13;7396205;19;20023;-69
2022/08/08 02:24:30;;;;;;;4.53;2.20;;;;;;;14.10;56.03;101687.22;7394196;19;20052;-69
2022/08/08 02:27:06;;;;;;;5.15;2.28;;;;;;;14.06;56.22;101690.81;7394994;19;20011;-69
2022/08/08 02:29:42;;;;;;;2.50;2.00;;;;;;;14.02;56.34;101692.66;7393828;19;20019;-69
2022/08/08 02:32:32;;;;;;;3.92;2.20;;;;;;;13.98;56.55;101697.13;7393776;19;20031;-69
2022/08/08 02:35:31;;;;;;;3.10;2.55;;;;;;;13.95;56.78;101704.22;7393073;19;20027;-69
2022/08/08 02:38:31;;;;;;;4.38;2.15;;;;;;;13.89;56.59;101699.06;7394552;19;20019;-68
2022/08/08 02:41:29;;;;;;;4.63;2.22;;;;;;;13.84;56.51;101702.69;7394871;19;20348;-68
2022/08/08 02:44:24;;;;;;;5.10;2.30;;;;;;;13.78;56.78;101696.66;7393172;19;20031;-68
2022/08/08 02:47:12;;;;;;;3.75;2.63;;;;;;;13.75;56.94;101708.16;7394868;19;20434;-68
2022/08/08 02:50:22;;;;;;;5.00;2.10;;;;;;;13.70;57.16;101704.75;7395449;19;20031;-68
2022/08/08 02:53:03;;;;;;;5.72;2.65;;;;;;;13.65;57.37;101699.53;7400320;19;20502;-69
2022/08/08 02:56:02;;;;;;;4.57;2.47;;;;;;;13.63;57.33;101709.25;7399373;19;20130;-68
2022/08/08 02:59:06;;;;;;;2.60;2.05;;;;;;;13.59;57.42;101707.56;7401967;19;20011;-68
2022/08/08 03:02:25;;;;;;;2.67;2.17;;;;;;;13.55;57.81;101708.53;7402065;19;20073;-68
2022/08/08 03:05:42;;;;;;;3.13;2.20;;;;;;;13.54;57.76;101703.28;7397840;19;20019;-68
2022/08/08 03:08:52;;;;;;;3.47;2.30;;;;;;;13.54;57.72;101708.56;7401463;19;20029;-68
2022/08/08 03:12:16;;;;;;;3.25;2.78;;;;;;;13.51;57.86;101714.78;7401928;19;20027;-68
2022/08/08 03:14:57;;;;;;;2.58;2.38;;;;;;;13.47;57.91;101710.44;7398288;19;20014;-68
2022/08/08 03:17:36;;;;;;;3.65;2.95;;;;;;;13.44;58.33;101711.34;7398384;19;20019;-68
2022/08/08 03:20:05;;;;;;;5.28;2.80;;;;;;;13.40;57.96;101712.31;7401861;19;20037;-68
2022/08/08 03:22:33;;;;;;;3.17;2.33;;;;;;;13.38;57.86;101718.50;7401289;19;20044;-68
2022/08/08 03:25:08;;;;;;;7.40;2.72;;;;;;;13.32;58.06;101717.69;7399153;19;20029;-68
2022/08/08 03:27:39;;;;;;;3.47;2.60;;;;;;;13.27;57.97;101718.66;7399910;19;20023;-68
2022/08/08 03:30:11;;;;;;;2.97;2.28;;;;;;;13.22;58.00;101717.88;7398175;19;20015;-68
2022/08/08 03:35:21;;;;;;;2.35;2.08;;;;;;;13.15;58.06;101717.97;7398004;19;20041;-68
2022/08/08 03:37:50;;;;;;;3.70;2.42;;;;;;;13.12;58.03;101723.31;7400557;19;20169;-69
2022/08/08 03:40:24;;;;;;;6.05;2.30;;;;;;;13.09;58.08;101727.75;7400521;19;20043;-69
2022/08/08 03:42:52;;;;;;;3.17;2.33;;;;;;;13.09;58.32;101725.13;7399612;19;20031;-69
2022/08/08 03:45:23;;;;;;;3.33;2.63;;;;;;;13.09;58.48;101728.63;7396949;19;20007;-69
2022/08/08 03:48:01;;;;;;;4.32;2.75;;;;;;;13.09;58.72;101720.72;7397522;19;20039;-68
2022/08/08 03:50:30;;;;;;;4.40;2.63;;;;;;;13.08;58.66;101721.63;7399453;19;20021;-68
2022/08/08 03:53:03;;;;;;;2.78;2.20;;;;;;;13.06;58.91;101726.03;7399282;19;20046;-68
2022/08/08 03:55:39;;;;;;;4.05;2.70;;;;;;;12.99;58.74;101714.75;7396493;19;20481;-68
2022/08/08 03:58:20;;;;;;;7.55;3.15;;;;;;;13.01;59.14;101735.78;7398942;19;20015;-69
2022/08/08 04:00:54;;;;;;;4.47;2.80;;;;;;;12.98;59.12;101735.84;7395247;19;20018;-68
2022/08/08 04:03:22;;;;;;;;;;;;;;;12.96;59.09;101735.84;7399933;19;20019;-68
2022/08/08 04:05:52;;;;;;;4.13;2.28;;;;;;;12.94;58.91;101740.28;7398542;19;19918;-68
2022/08/08 04:08:22;;;;;;;4.47;2.58;;;;;;;12.93;59.13;101749.06;7397448;19;20015;-68
2022/08/08 04:10:54;;;;;;;3.35;2.50;;;;;;;12.92;59.34;101744.69;7395676;19;20071;-69
2022/08/08 04:13:22;;;;;;;6.20;2.95;;;;;;;12.92;59.58;101743.84;7398469;19;20031;-69
2022/08/08 04:15:51;;;;;;;6.75;2.70;;;;;;;12.92;59.78;101749.09;7396776;19;20014;-68
2022/08/08 04:18:19;;;;;;;4.80;2.65;;;;;;;12.90;59.73;101754.38;7398348;19;20023;-69
2022/08/08 04:20:48;;;;;;;6.07;2.60;;;;;;;12.87;59.66;101755.28;7398729;19;20022;-69
2022/08/08 04:23:17;;;;;;;4.95;2.88;;;;;;;12.87;59.79;101760.56;7396195;19;20419;-69
2022/08/08 04:25:45;;;;;;;9.18;3.10;;;;;;;12.85;59.89;101757.09;7398740;19;20032;-69
2022/08/08 04:28:17;;;;;;;62.45;37.40;;;;;;;12.84;60.19;101754.50;7396759;19;20018;-69
2022/08/08 04:30:45;;;;;;;28.83;17.05;;;;;;;12.82;60.00;101757.13;7398971;19;20362;-68
2022/08/08 04:33:14;;;;;;;8.52;5.50;;;;;;;12.84;59.98;101762.41;7398266;19;20036;-69
2022/08/08 04:35:42;;;;;;;7.65;3.78;;;;;;;12.84;59.88;101759.75;7397328;19;20014;-69
2022/08/08 04:38:11;;;;;;;6.63;3.30;;;;;;;12.84;59.77;101760.63;7398492;19;20104;-69
2022/08/08 04:40:40;;;;;;;5.22;2.88;;;;;;;12.84;59.71;101770.28;7399308;19;20035;-69
2022/08/08 04:43:08;;;;;;;4.35;2.70;;;;;;;12.83;59.65;101761.50;7398022;19;20018;-69
2022/08/08 04:45:39;;;;;;;5.55;3.28;;;;;;;12.81;59.78;101765.06;7398126;19;20022;-69
2022/08/08 04:48:08;;;;;;;4.63;2.90;;;;;;;12.83;59.92;101769.41;7397986;19;20375;-69
2022/08/08 04:50:36;;;;;;;3.85;2.72;;;;;;;12.84;59.69;101768.53;7397851;19;20502;-69
2022/08/08 04:53:05;;;;;;;5.05;3.00;;;;;;;12.83;60.00;101769.41;7397396;19;20019;-69
2022/08/08 04:55:34;;;;;;;6.78;3.10;;;;;;;12.82;59.85;101767.66;7396919;19;20022;-69
2022/08/08 04:58:03;;;;;;;5.28;3.10;;;;;;;12.82;60.15;101766.81;7397269;19;20018;-68
2022/08/08 05:00:31;;;;;;;6.60;2.58;;;;;;;12.82;60.07;101772.94;7395038;19;20423;-69
2022/08/08 05:03:02;;;;;;;6.15;2.63;;;;;;;12.81;59.86;101771.19;7397585;19;20031;-69
2022/08/08 05:05:31;;;;;;;4.20;2.58;;;;;;;12.81;59.90;101780.84;7395099;19;20018;-69
2022/08/08 05:08:00;;;;;;;5.55;2.58;;;;;;;12.81;59.94;101775.59;7394634;19;20011;-69
2022/08/08 05:10:29;;;;;;;4.95;2.65;;;;;;;12.81;59.85;101780.84;7396698;19;20018;-69
2022/08/08 05:12:58;;;;;;;3.78;2.53;;;;;;;12.81;59.90;101776.44;7395449;19;20022;-69
2022/08/08 05:15:27;;;;;;;7.50;2.92;;;;;;;12.84;59.84;101786.09;7395319;19;20036;-69
2022/08/08 05:17:55;;;;;;;4.57;2.90;;;;;;;12.86;59.93;101785.19;7397315;19;20015;-70
2022/08/08 05:20:26;;;;;;;3.78;3.15;;;;;;;12.89;59.95;101786.91;7396673;19;20030;-68
2022/08/08 05:22:55;;;;;;;4.22;2.67;;;;;;;12.92;59.91;101784.22;7395009;19;20011;-69
2022/08/08 05:25:24;;;;;;;6.20;3.08;;;;;;;12.95;60.02;101786.78;7394255;19;20473;-69
2022/08/08 05:27:53;;;;;;;3.42;2.55;;;;;;;12.98;59.95;101783.25;7393586;19;20492;-68
2022/08/08 05:30:21;;;;;;;3.90;2.42;;;;;;;13.03;60.01;101781.44;7394985;19;20032;-68
2022/08/08 05:32:52;;;;;;;5.85;2.50;;;;;;;13.08;59.96;101789.22;7396424;19;20072;-69
2022/08/08 05:35:26;;;;;;;5.45;2.70;;;;;;;13.12;59.97;101780.41;7395537;19;20024;-68
2022/08/08 05:37:57;;;;;;;4.50;2.65;;;;;;;13.18;59.78;101786.44;7396713;19;20018;-68
2022/08/08 05:40:26;;;;;;;6.90;2.70;;;;;;;13.25;59.88;101794.25;7395369;19;20023;-68
2022/08/08 05:43:00;;;;;;;3.17;2.85;;;;;;;13.31;59.74;101792.38;7395833;19;20384;-68
2022/08/08 05:45:30;;;;;;;3.88;3.00;;;;;;;13.39;59.62;101791.41;7393884;19;20035;-69
2022/08/08 05:47:59;;;;;;;5.72;2.83;;;;;;;13.46;59.72;101793.94;7395511;19;20035;-69
2022/08/08 05:50:31;;;;;;;3.70;3.13;;;;;;;13.52;59.41;101788.56;7395820;19;20018;-69
2022/08/08 05:53:00;;;;;;;4.70;3.30;;;;;;;13.62;59.30;101797.19;7396670;19;20035;-69
2022/08/08 05:55:30;;;;;;;6.25;3.30;;;;;;;13.71;59.63;101795.25;7393923;19;20015;-69
2022/08/08 05:58:01;;;;;;;3.70;3.10;;;;;;;13.79;59.28;101796.00;7396234;19;20387;-69
2022/08/08 06:00:33;;;;;;;5.55;3.78;;;;;;;13.91;59.39;101802.81;7396139;19;20031;-69
2022/08/08 06:03:12;;;;;;;6.28;3.53;;;;;;;13.98;59.13;101809.72;7395425;19;20018;-69
2022/08/08 06:05:50;;;;;;;6.18;3.20;;;;;;;14.09;59.40;101797.19;7395181;19;20026;-69
2022/08/08 06:08:25;;;;;;;7.85;3.05;;;;;;;14.21;59.11;101801.34;7393789;19;20378;-69
2022/08/08 06:10:56;;;;;;;4.45;3.47;;;;;;;14.31;59.04;101802.03;7395681;19;20032;-69
2022/08/08 06:13:27;;;;;;;3.72;2.92;;;;;;;14.41;58.72;101802.72;7395032;19;20031;-69
2022/08/08 06:15:56;;;;;;;7.97;3.55;;;;;;;14.49;58.89;101800.78;7395138;19;20386;-68
2022/08/08 06:18:26;;;;;;;5.38;2.88;;;;;;;14.57;58.71;101803.25;7394483;19;20491;-69
2022/08/08 06:21:06;;;;;;;4.07;3.53;;;;;;;14.69;58.64;101807.44;7394969;19;20033;-69
2022/08/08 06:23:35;;;;;;;4.75;3.40;;;;;;;14.77;58.37;101803.72;7394101;19;20109;-68
2022/08/08 06:26:05;;;;;;;7.10;3.95;;;;;;;14.86;58.02;101804.41;7391815;19;20019;-68
2022/08/08 06:28:35;;;;;;;4.30;3.42;;;;;;;14.96;57.90;101808.56;7393003;19;20010;-69
2022/08/08 06:31:06;;;;;;;5.40;3.20;;;;;;;15.06;57.98;101814.50;7394425;19;20350;-69
2022/08/08 06:33:42;;;;;;;4.40;3.45;;;;;;;15.15;57.92;101809.88;7394438;19;20023;-69
2022/08/08 06:36:19;;;;;;;4.15;3.75;;;;;;;15.25;57.55;101807.00;7394199;19;20021;-69
2022/08/08 06:38:51;;;;;;;4.30;3.28;;;;;;;15.34;57.19;101808.56;7395252;19;20035;-69
2022/08/08 06:41:21;;;;;;;3.88;3.03;;;;;;;15.44;57.12;101815.34;7394298;19;20018;-69
2022/08/08 06:43:56;;;;;;;4.30;3.25;;;;;;;15.53;57.01;101809.84;7392193;19;20014;-69
2022/08/08 06:46:25;;;;;;;3.92;3.50;;;;;;;15.62;56.69;101806.09;7394186;19;20018;-69
2022/08/08 06:48:54;;;;;;;5.18;3.58;;;;;;;15.71;56.58;101805.84;7394656;19;20035;-69
2022/08/08 06:51:26;;;;;;;4.82;3.90;;;;;;;15.80;56.44;101812.69;7392810;19;20019;-69
2022/08/08 06:53:56;;;;;;;6.93;3.60;;;;;;;15.91;56.26;101818.59;7392693;19;20022;-69
2022/08/08 06:56:25;;;;;;;5.93;3.72;;;;;;;16.02;56.16;101812.13;7392909;19;20074;-69
2022/08/08 06:58:54;;;;;;;5.75;3.42;;;;;;;16.11;55.61;101806.56;7394011;19;20094;-69
2022/08/08 07:01:25;;;;;;;6.10;3.33;;;;;;;16.24;55.19;101812.41;7393260;19;20021;-69
2022/08/08 07:04:00;;;;;;;6.13;2.97;;;;;;;16.35;55.02;101812.09;7393262;19;20022;-69
2022/08/08 07:06:35;;;;;;;7.63;2.72;;;;;;;16.46;54.27;101810.00;7393803;19;20019;-69
2022/08/08 07:09:09;;;;;;;6.15;2.08;;;;;;;16.58;53.92;101814.94;7394480;19;20023;-69
2022/08/08 07:11:44;;;;;;;4.45;2.58;;;;;;;16.70;53.36;101811.03;7392604;19;20018;-69
2022/08/08 07:14:20;;;;;;;4.97;3.00;;;;;;;16.82;53.08;101809.81;7393058;19;20015;-69
2022/08/08 07:16:58;;;;;;;5.32;3.42;;;;;;;16.93;52.98;101815.69;7392605;19;20031;-69
2022/08/08 07:19:36;;;;;;;3.22;2.60;;;;;;;17.05;52.47;101814.41;7393793;19;20018;-69
2022/08/08 07:22:10;;;;;;;4.45;2.70;;;;;;;17.17;52.00;101813.13;7392904;19;20584;-70
2022/08/08 07:24:45;;;;;;;47.33;12.25;;;;;;;17.30;52.04;101812.75;7392269;19;20021;-69
2022/08/08 07:27:15;;;;;;;42.70;11.90;;;;;;;17.40;51.54;101811.50;7392225;19;20019;-69
2022/08/08 07:29:43;;;;;;;7.28;3.40;;;;;;;17.51;51.36;101809.38;7391226;19;20023;-69
2022/08/08 07:32:12;;;;;;;9.40;4.22;;;;;;;17.62;50.94;101806.34;7392273;19;20019;-69
2022/08/08 07:34:42;;;;;;;5.05;2.80;;;;;;;17.72;50.65;101809.56;7391202;19;20363;-70
2022/08/08 07:37:15;;;;;;;3.33;2.33;;;;;;;17.85;49.96;101815.31;7396287;19;20034;-69
2022/08/08 07:39:45;;;;;;;3.77;2.20;;;;;;;17.97;49.35;101819.34;7400350;19;20019;-69
2022/08/08 07:42:14;;;;;;;3.42;2.03;;;;;;;18.09;49.08;101816.25;7399607;19;20019;-69
2022/08/08 07:44:44;;;;;;;2.25;1.77;;;;;;;18.21;48.32;101820.22;7398355;19;20031;-70
2022/08/08 07:47:12;;;;;;;4.15;2.28;;;;;;;18.33;48.14;101817.13;7399216;19;20015;-69
2022/08/08 07:49:41;;;;;;;3.53;2.30;;;;;;;18.43;47.85;101817.66;7399682;19;20046;-69
2022/08/08 07:52:14;;;;;;;4.03;1.98;;;;;;;18.53;47.62;101818.19;7400156;19;20377;-68
2022/08/08 07:54:50;;;;;;;2.38;1.70;;;;;;;18.67;46.90;101817.66;7398380;19;20025;-68
2022/08/08 07:57:33;;;;;;;3.45;1.73;;;;;;;18.81;45.95;101823.28;7398720;19;20046;-68
2022/08/08 08:00:08;;;;;;;3.53;1.80;;;;;;;18.95;46.04;101824.56;7397112;19;20485;-69
2022/08/08 08:02:41;;;;;;;3.72;1.85;;;;;;;19.09;44.52;101829.34;7397035;19;20014;-69
2022/08/08 08:05:17;;;;;;;3.10;1.88;;;;;;;19.24;44.80;101831.34;7397373;19;20074;-69
2022/08/08 08:07:50;;;;;;;3.80;1.90;;;;;;;19.37;44.43;101823.72;7399975;19;20029;-69
2022/08/08 08:10:20;;;;;;;4.38;1.90;;;;;;;19.52;44.09;101835.53;7399812;19;20391;-69
2022/08/08 08:12:54;;;;;;;6.93;2.75;;;;;;;19.64;44.40;101835.03;7399872;19;20022;-69
2022/08/08 08:15:28;;;;;;;3.72;2.03;;;;;;;19.79;43.52;101832.63;7396331;19;20014;-68
2022/08/08 08:18:00;;;;;;;5.50;2.28;;;;;;;19.91;43.89;101832.13;7397300;19;20023;-68
2022/08/08 08:20:30;;;;;;;3.88;1.75;;;;;;;20.01;43.15;101836.09;7398485;19;20022;-68
2022/08/08 08:23:01;;;;;;;3.60;2.38;;;;;;;20.11;42.47;101836.56;7395791;19;20018;-68
2022/08/08 08:25:30;;;;;;;2.88;1.77;;;;;;;20.20;42.09;101840.63;7397048;19;20089;-70
2022/08/08 08:27:58;;;;;;;3.63;2.20;;;;;;;20.29;41.84;101829.53;7395723;19;20010;-69
2022/08/08 08:30:28;;;;;;;3.88;2.22;;;;;;;20.40;41.53;101828.22;7397903;19;20010;-70
2022/08/08 08:32:57;;;;;;;4.10;2.28;;;;;;;20.49;41.21;101833.09;7399003;19;20014;-70
2022/08/08 08:35:25;;;;;;;3.72;2.35;;;;;;;20.57;40.72;101836.25;7394991;19;20477;-70
2022/08/08 08:37:54;;;;;;;4.40;1.90;;;;;;;20.65;40.57;101835.94;7395531;19;20087;-69
2022/08/08 08:40:26;;;;;;;3.28;1.88;;;;;;;20.74;39.86;101827.50;7397339;19;20423;-70
2022/08/08 08:42:56;;;;;;;3.58;1.77;;;;;;;20.86;39.56;101834.06;7397817;19;20027;-69
2022/08/08 08:45:25;;;;;;;6.32;1.70;;;;;;;20.96;39.50;101830.00;7394285;19;20031;-69
2022/08/08 08:47:54;;;;;;;2.33;1.75;;;;;;;21.05;39.15;101827.84;7394979;19;20015;-69
2022/08/08 08:50:24;;;;;;;3.65;1.85;;;;;;;21.14;39.08;101835.38;7397710;19;20019;-69
2022/08/08 08:52:54;;;;;;;2.58;1.85;;;;;;;21.21;38.73;101827.97;7397136;19;20483;-69
2022/08/08 08:55:27;;;;;;;2.67;2.05;;;;;;;21.29;38.41;101826.66;7395558;19;20015;-69
2022/08/08 08:57:58;;;;;;;2.97;1.83;;;;;;;21.40;38.10;101830.56;7395462;19;20015;-69
2022/08/08 09:00:27;;;;;;;3.85;2.10;;;;;;;21.49;38.06;101828.28;7397050;19;20018;-69
2022/08/08 09:03:00;;;;;;;3.45;2.17;;;;;;;21.57;38.12;101825.28;7397163;19;20509;-69
2022/08/08 09:05:30;;;;;;;4.70;2.17;;;;;;;21.66;38.00;101823.06;7395319;19;20039;-69
2022/08/08 09:08:09;;;;;;;3.08;2.00;;;;;;;21.78;37.05;101825.09;7397317;19;20010;-69
2022/08/08 09:10:41;;;;;;;4.68;2.10;;;;;;;21.86;37.34;101820.22;7397378;19;20018;-70
2022/08/08 09:13:11;;;;;;;3.83;2.13;;;;;;;21.96;37.47;101821.47;7395309;19;20031;-69
2022/08/08 09:15:41;;;;;;;3.55;1.98;;;;;;;22.07;37.41;101822.72;7394890;19;20031;-69
2022/08/08 09:18:10;;;;;;;3.22;2.10;;;;;;;22.19;37.25;101824.72;7396054;19;20031;-69
2022/08/08 09:20:39;;;;;;;4.90;2.20;;;;;;;22.31;36.75;101822.34;7395043;19;20078;-69
2022/08/08 09:23:08;;;;;;;4.10;2.25;;;;;;;22.39;36.79;101815.66;7393736;19;20477;-69
2022/08/08 09:25:45;;;;;;;2.45;1.65;;;;;;;22.52;36.21;101817.63;7394302;19;20026;-69
2022/08/08 09:28:14;;;;;;;4.53;1.98;;;;;;;22.65;36.01;101812.50;7394743;19;20017;-69
2022/08/08 09:30:45;;;;;;;4.95;1.80;;;;;;;22.77;35.93;101810.00;7396503;19;20018;-68
2022/08/08 09:33:18;;;;;;;4.50;1.85;;;;;;;22.88;35.63;101812.03;7394538;19;20022;-68
2022/08/08 09:35:48;;;;;;;3.47;1.97;;;;;;;22.96;35.37;101808.91;7395952;19;20018;-70
2022/08/08 09:38:31;;;;;;;2.60;1.90;;;;;;;23.08;34.89;101807.38;7394784;19;20031;-69
2022/08/08 09:41:06;;;;;;;5.53;2.33;;;;;;;23.17;34.73;101811.34;7395608;19;20018;-69
2022/08/08 09:43:47;;;;;;;2.85;2.00;;;;;;;23.29;34.42;101807.09;7393224;19;20437;-69
2022/08/08 09:46:16;;;;;;;5.03;2.92;;;;;;;23.40;34.60;101805.53;7393032;19;20108;-68
2022/08/08 09:48:46;;;;;;;4.05;1.52;;;;;;;23.48;34.06;101805.06;7395211;19;20021;-69
2022/08/08 09:51:16;;;;;;;2.95;1.08;;;;;;;23.57;33.37;101800.97;7396167;19;20043;-69
2022/08/08 09:53:51;;;;;;;3.28;1.67;;;;;;;23.65;32.79;101797.81;7395375;19;20362;-70
2022/08/08 09:56:23;;;;;;;2.10;1.73;;;;;;;23.73;32.60;101799.09;7395612;19;20485;-69
2022/08/08 09:58:58;;;;;;;3.53;1.70;;;;;;;23.83;32.33;101795.84;7393165;19;20354;-69
2022/08/08 10:01:28;;;;;;;3.83;1.67;;;;;;;23.88;32.55;101791.91;7396180;19;20022;-68
2022/08/08 10:03:59;;;;;;;4.45;1.65;;;;;;;23.94;32.51;101792.53;7393856;19;20457;-68
2022/08/08 10:06:28;;;;;;;2.83;1.38;;;;;;;24.00;32.62;101786.78;7393189;19;20489;-69
2022/08/08 10:08:57;;;;;;;3.88;1.55;;;;;;;24.07;32.44;101786.31;7393859;19;20019;-69
2022/08/08 10:11:28;;;;;;;4.20;1.67;;;;;;;24.14;32.08;101783.22;7394028;19;20035;-69
2022/08/08 10:13:59;;;;;;;3.00;1.58;;;;;;;24.18;32.18;101787.47;7395219;19;20041;-69
2022/08/08 10:16:39;;;;;;;2.70;1.45;;;;;;;24.22;31.97;101791.66;7394148;19;20493;-67
2022/08/08 10:19:10;;;;;;;1.48;1.10;;;;;;;24.27;31.65;101786.88;7392364;19;20073;-68
2022/08/08 10:21:41;;;;;;;3.10;1.20;;;;;;;24.33;31.39;101793.69;7394846;19;20018;-69
2022/08/08 10:24:11;;;;;;;3.00;1.50;;;;;;;24.40;31.54;101792.31;7393803;19;20018;-68
2022/08/08 10:26:46;;;;;;;2.58;1.42;;;;;;;24.50;31.08;101784.53;7393503;19;20015;-69
2022/08/08 10:29:15;;;;;;;2.22;1.08;;;;;;;24.62;30.92;101791.78;7391662;19;20474;-69
2022/08/08 10:34:27;;;;;;;1.83;1.23;;;;;;;24.79;30.35;101788.03;7392798;19;20344;-68
2022/08/08 10:36:56;;;;;;;1.50;1.10;;;;;;;24.84;30.19;101787.75;7392025;19;20022;-69
2022/08/08 10:39:26;;;;;;;2.85;1.48;;;;;;;24.86;30.50;101784.00;7392353;19;20028;-69
2022/08/08 10:42:02;;;;;;;3.30;1.88;;;;;;;24.87;30.02;101785.72;7394673;19;20023;-69
2022/08/08 10:44:38;;;;;;;2.05;1.13;;;;;;;24.87;30.04;101776.78;7392765;19;20035;-69
2022/08/08 10:47:11;;;;;;;2.33;1.50;;;;;;;24.86;29.89;101775.09;7392260;19;20015;-69
2022/08/08 10:49:42;;;;;;;2.38;1.13;;;;;;;24.87;29.71;101783.03;7393941;19;20501;-69
2022/08/08 10:52:11;;;;;;;1.75;1.27;;;;;;;24.91;29.20;101790.88;7394930;19;20014;-69
2022/08/08 10:54:41;;;;;;;1.95;1.17;;;;;;;24.89;29.55;101777.56;7393052;19;20018;-69
2022/08/08 10:57:12;;;;;;;2.92;1.60;;;;;;;24.84;29.02;101775.16;7393619;19;20037;-69
2022/08/08 10:59:44;;;;;;;2.22;1.50;;;;;;;24.82;29.63;101769.06;7393639;19;20011;-68
2022/08/08 11:02:12;;;;;;;1.90;1.42;;;;;;;24.85;29.60;101774.22;7392243;19;20018;-69
2022/08/08 11:04:46;;;;;;;4.38;1.40;;;;;;;24.87;29.67;101772.28;7391985;19;20039;-68
2022/08/08 11:07:26;;;;;;;1.90;1.50;;;;;;;24.94;29.35;101769.22;7393625;19;20039;-69
2022/08/08 11:09:54;;;;;;;2.95;1.42;;;;;;;25.00;29.28;101768.81;7393841;19;20027;-69
2022/08/08 11:12:25;;;;;;;1.63;1.13;;;;;;;25.04;28.72;101771.16;7396894;19;20027;-69
2022/08/08 11:14:56;;;;;;;4.82;1.42;;;;;;;25.11;29.18;101776.13;7398052;19;20430;-69
2022/08/08 11:17:27;;;;;;;1.50;1.17;;;;;;;25.17;29.35;101773.91;7400719;19;20014;-69
2022/08/08 11:19:56;;;;;;;1.67;1.20;;;;;;;25.23;28.86;101767.25;7401857;19;20022;-69
2022/08/08 11:22:31;;;;;;;2.72;1.85;;;;;;;25.30;28.03;101779.28;7400319;19;20410;-69
2022/08/08 11:25:03;;;;;;;1.45;1.35;;;;;;;25.35;28.63;101765.53;7398260;19;20482;-68
2022/08/08 11:27:36;;;;;;;1.90;1.50;;;;;;;25.46;28.65;101764.84;7401447;19;20018;-69
2022/08/08 11:30:08;;;;;;;2.17;1.48;;;;;;;25.59;28.25;101763.03;7397646;19;20392;-69
2022/08/08 11:32:40;;;;;;;3.13;1.27;;;;;;;25.73;28.11;101761.19;7400921;19;20023;-69
2022/08/08 11:35:10;;;;;;;1.52;1.42;;;;;;;25.85;27.88;101757.66;7397131;19;20015;-68
2022/08/08 11:37:41;;;;;;;3.40;1.50;;;;;;;25.97;27.88;101755.91;7399745;19;20018;-69
2022/08/08 11:40:12;;;;;;;3.00;1.50;;;;;;;26.11;27.63;101754.94;7400558;19;20018;-68
2022/08/08 11:42:44;;;;;;;2.03;1.50;;;;;;;26.25;27.29;101752.13;7399215;19;20489;-69
2022/08/08 11:45:15;;;;;;;3.70;1.55;;;;;;;26.39;27.63;101764.59;7397363;19;20019;-68
2022/08/08 11:47:44;;;;;;;1.95;1.30;;;;;;;26.52;27.66;101763.69;7402075;19;20031;-69
2022/08/08 11:50:18;;;;;;;3.60;1.30;;;;;;;26.65;26.98;101751.91;7400017;19;20078;-69
2022/08/08 11:52:47;;;;;;;1.70;1.35;;;;;;;26.73;27.15;101755.84;7400017;19;20010;-69
2022/08/08 11:55:18;;;;;;;1.67;1.40;;;;;;;26.75;26.69;101748.53;7397456;19;20027;-69
2022/08/08 11:57:49;;;;;;;2.60;1.58;;;;;;;26.82;26.71;101749.81;7398857;19;20481;-69
2022/08/08 12:00:20;;;;;;;4.18;1.30;;;;;;;26.95;26.67;101747.03;7400049;19;20022;-68
2022/08/08 12:02:53;;;;;;;1.63;1.20;;;;;;;27.17;26.25;101753.50;7399594;19;20031;-68
2022/08/08 12:05:38;;;;;;;3.78;1.38;;;;;;;27.35;26.41;101745.81;7397364;19;20077;-68
2022/08/08 12:08:07;;;;;;;1.95;1.42;;;;;;;27.62;26.22;101753.63;7399154;19;20010;-69
2022/08/08 12:10:49;;;;;;;4.40;2.05;;;;;;;27.80;24.84;101743.22;7399074;19;20019;-69
2022/08/08 12:13:25;;;;;;;4.35;1.55;;;;;;;27.93;25.51;101741.25;7399441;19;20018;-68